sensor_id;sensor_type;location;lat;lon;timestamp;pressure;altitude;pressure_sealevel;temperature;humidity
49827;BME280;35715;51.570;6.036;2023-12-14T00:01:14;100655.47;;;8.75;100.00
49827;BME280;35715;51.570;6.036;2023-12-14T00:03:40;100660.53;;;8.73;100.00
49827;BME280;35715;51.570;6.036;2023-12-14T00:06:07;100668.56;;;8.78;100.00
49827;BME280;35715;51.570;6.036;2023-12-14T00:08:33;100674.97;;;8.71;100.00
49827;BME280;35715;51.570;6.036;2023-12-14T00:11:06;100674.19;;;8.72;100.00
49827;BME280;35715;51.570;6.036;2023-12-14T00:13:32;100679.78;;;8.66;100.00
49827;BME280;35715;51.570;6.036;2023-12-14T00:15:57;100677.88;;;8.64;100.00
49827;BME280;35715;51.570;6.036;2023-12-14T00:18:23;100679.56;;;8.63;100.00
49827;BME280;35715;51.570;6.036;2023-12-14T00:20:48;100696.63;;;8.63;100.00
49827;BME280;35715;51.570;6.036;2023-12-14T00:23:13;100696.19;;;8.57;100.00
49827;BME280;35715;51.570;6.036;2023-12-14T00:25:42;100708.81;;;8.53;100.00
49827;BME280;35715;51.570;6.036;2023-12-14T00:28:07;100713.84;;;8.52;100.00
49827;BME280;35715;51.570;6.036;2023-12-14T00:30:33;100714.56;;;8.49;100.00
49827;BME280;35715;51.570;6.036;2023-12-14T00:32:58;100717.88;;;8.48;100.00
49827;BME280;35715;51.570;6.036;2023-12-14T00:35:23;100726.72;;;8.52;100.00
49827;BME280;35715;51.570;6.036;2023-12-14T00:37:49;100720.91;;;8.55;100.00
49827;BME280;35715;51.570;6.036;2023-12-14T00:40:14;100732.66;;;8.51;100.00
49827;BME280;35715;51.570;6.036;2023-12-14T00:42:40;100736.44;;;8.44;100.00
49827;BME280;35715;51.570;6.036;2023-12-14T00:45:05;100754.44;;;8.44;100.00
49827;BME280;35715;51.570;6.036;2023-12-14T00:47:31;100756.22;;;8.45;100.00
49827;BME280;35715;51.570;6.036;2023-12-14T00:49:56;100765.09;;;8.39;100.00
49827;BME280;35715;51.570;6.036;2023-12-14T00:52:21;100766.56;;;8.35;100.00
49827;BME280;35715;51.570;6.036;2023-12-14T00:54:47;100770.94;;;8.36;100.00
49827;BME280;35715;51.570;6.036;2023-12-14T00:57:12;100777.50;;;8.32;100.00
49827;BME280;35715;51.570;6.036;2023-12-14T00:59:40;100786.78;;;8.30;100.00
49827;BME280;35715;51.570;6.036;2023-12-14T01:02:09;100799.63;;;8.30;100.00
49827;BME280;35715;51.570;6.036;2023-12-14T01:04:34;100808.00;;;8.28;100.00
49827;BME280;35715;51.570;6.036;2023-12-14T01:06:59;100822.97;;;8.22;100.00
49827;BME280;35715;51.570;6.036;2023-12-14T01:09:24;100826.44;;;8.22;100.00
49827;BME280;35715;51.570;6.036;2023-12-14T01:11:50;100828.09;;;8.22;100.00
49827;BME280;35715;51.570;6.036;2023-12-14T01:14:15;100833.00;;;8.18;100.00
49827;BME280;35715;51.570;6.036;2023-12-14T01:16:41;100828.78;;;8.19;100.00
49827;BME280;35715;51.570;6.036;2023-12-14T01:19:06;100845.63;;;8.15;100.00
49827;BME280;35715;51.570;6.036;2023-12-14T01:21:32;100848.06;;;8.14;100.00
49827;BME280;35715;51.570;6.036;2023-12-14T01:23:57;100847.47;;;8.06;100.00
49827;BME280;35715;51.570;6.036;2023-12-14T01:26:26;100849.41;;;8.09;100.00
49827;BME280;35715;51.570;6.036;2023-12-14T01:28:52;100850.94;;;8.07;100.00
49827;BME280;35715;51.570;6.036;2023-12-14T01:31:17;100855.19;;;8.06;100.00
49827;BME280;35715;51.570;6.036;2023-12-14T01:33:42;100856.75;;;8.04;100.00
49827;BME280;35715;51.570;6.036;2023-12-14T01:36:08;100856.88;;;8.06;100.00
49827;BME280;35715;51.570;6.036;2023-12-14T01:38:33;100858.25;;;8.12;100.00
49827;BME280;35715;51.570;6.036;2023-12-14T01:40:59;100869.97;;;8.09;100.00
49827;BME280;35715;51.570;6.036;2023-12-14T01:43:24;100867.03;;;8.04;100.00
49827;BME280;35715;51.570;6.036;2023-12-14T01:45:50;100868.34;;;7.99;100.00
49827;BME280;35715;51.570;6.036;2023-12-14T01:48:15;100871.94;;;8.01;100.00
49827;BME280;35715;51.570;6.036;2023-12-14T01:50:41;100876.41;;;8.04;100.00
49827;BME280;35715;51.570;6.036;2023-12-14T01:53:06;100885.03;;;8.04;100.00
49827;BME280;35715;51.570;6.036;2023-12-14T01:55:31;100889.00;;;8.00;100.00
49827;BME280;35715;51.570;6.036;2023-12-14T01:57:57;100899.84;;;7.96;100.00
49827;BME280;35715;51.570;6.036;2023-12-14T02:03:16;100909.81;;;8.04;100.00
49827;BME280;35715;51.570;6.036;2023-12-14T02:05:42;100918.47;;;7.94;100.00
49827;BME280;35715;51.570;6.036;2023-12-14T02:08:08;100919.34;;;7.94;100.00
49827;BME280;35715;51.570;6.036;2023-12-14T02:10:33;100923.13;;;7.88;100.00
49827;BME280;35715;51.570;6.036;2023-12-14T02:13:01;100926.69;;;7.90;100.00
49827;BME280;35715;51.570;6.036;2023-12-14T02:15:27;100933.41;;;7.88;100.00
49827;BME280;35715;51.570;6.036;2023-12-14T02:17:52;100933.41;;;7.88;100.00
49827;BME280;35715;51.570;6.036;2023-12-14T02:20:17;100944.19;;;7.84;100.00
49827;BME280;35715;51.570;6.036;2023-12-14T02:25:18;100945.84;;;7.93;100.00
49827;BME280;35715;51.570;6.036;2023-12-14T02:27:44;100951.09;;;7.95;100.00
49827;BME280;35715;51.570;6.036;2023-12-14T02:30:10;100948.44;;;7.83;100.00
49827;BME280;35715;51.570;6.036;2023-12-14T02:32:36;100950.09;;;7.82;100.00
49827;BME280;35715;51.570;6.036;2023-12-14T02:35:02;100954.59;;;7.85;100.00
49827;BME280;35715;51.570;6.036;2023-12-14T02:37:27;100962.81;;;7.81;100.00
49827;BME280;35715;51.570;6.036;2023-12-14T02:39:53;100963.84;;;7.83;100.00
49827;BME280;35715;51.570;6.036;2023-12-14T02:42:18;100968.44;;;7.87;100.00
49827;BME280;35715;51.570;6.036;2023-12-14T02:44:44;100968.31;;;7.86;100.00
49827;BME280;35715;51.570;6.036;2023-12-14T02:47:09;100969.88;;;7.84;100.00
49827;BME280;35715;51.570;6.036;2023-12-14T02:49:34;100982.84;;;7.85;100.00
49827;BME280;35715;51.570;6.036;2023-12-14T02:52:00;100980.28;;;7.85;100.00
49827;BME280;35715;51.570;6.036;2023-12-14T02:54:25;100986.72;;;7.80;100.00
49827;BME280;35715;51.570;6.036;2023-12-14T02:56:50;100995.06;;;7.77;100.00
49827;BME280;35715;51.570;6.036;2023-12-14T02:59:16;100998.84;;;7.71;100.00
49827;BME280;35715;51.570;6.036;2023-12-14T03:01:41;100999.06;;;7.74;100.00
49827;BME280;35715;51.570;6.036;2023-12-14T03:04:07;101006.66;;;7.72;100.00
49827;BME280;35715;51.570;6.036;2023-12-14T03:06:33;101001.78;;;7.75;100.00
49827;BME280;35715;51.570;6.036;2023-12-14T03:09:01;101010.25;;;7.74;100.00
49827;BME280;35715;51.570;6.036;2023-12-14T03:11:26;101015.00;;;7.70;100.00
49827;BME280;35715;51.570;6.036;2023-12-14T03:13:52;101010.63;;;7.69;100.00
49827;BME280;35715;51.570;6.036;2023-12-14T03:16:18;101022.97;;;7.73;100.00
49827;BME280;35715;51.570;6.036;2023-12-14T03:18:44;101029.53;;;7.59;100.00
49827;BME280;35715;51.570;6.036;2023-12-14T03:21:11;101026.03;;;7.58;100.00
49827;BME280;35715;51.570;6.036;2023-12-14T03:23:36;101039.00;;;7.60;100.00
49827;BME280;35715;51.570;6.036;2023-12-14T03:26:02;101045.06;;;7.60;100.00
49827;BME280;35715;51.570;6.036;2023-12-14T03:28:29;101051.22;;;7.62;100.00
49827;BME280;35715;51.570;6.036;2023-12-14T03:30:55;101054.53;;;7.61;100.00
49827;BME280;35715;51.570;6.036;2023-12-14T03:33:20;101058.66;;;7.59;100.00
49827;BME280;35715;51.570;6.036;2023-12-14T03:35:48;101058.66;;;7.59;100.00
49827;BME280;35715;51.570;6.036;2023-12-14T03:38:13;101059.28;;;7.57;100.00
49827;BME280;35715;51.570;6.036;2023-12-14T03:40:39;101056.84;;;7.58;100.00
49827;BME280;35715;51.570;6.036;2023-12-14T03:43:04;101058.66;;;7.59;100.00
49827;BME280;35715;51.570;6.036;2023-12-14T03:45:30;101069.94;;;7.61;100.00
49827;BME280;35715;51.570;6.036;2023-12-14T03:47:55;101071.25;;;7.67;100.00
49827;BME280;35715;51.570;6.036;2023-12-14T03:50:21;101071.38;;;7.68;100.00
49827;BME280;35715;51.570;6.036;2023-12-14T03:52:47;101068.44;;;7.63;100.00
49827;BME280;35715;51.570;6.036;2023-12-14T03:55:12;101073.44;;;7.62;100.00
49827;BME280;35715;51.570;6.036;2023-12-14T03:57:40;101078.56;;;7.62;100.00
49827;BME280;35715;51.570;6.036;2023-12-14T04:00:06;101081.16;;;7.62;100.00
49827;BME280;35715;51.570;6.036;2023-12-14T04:02:34;101087.03;;;7.61;100.00
49827;BME280;35715;51.570;6.036;2023-12-14T04:04:59;101091.53;;;7.63;100.00
49827;BME280;35715;51.570;6.036;2023-12-14T04:07:25;101104.63;;;7.56;100.00
49827;BME280;35715;51.570;6.036;2023-12-14T04:09:50;101102.31;;;7.49;100.00
49827;BME280;35715;51.570;6.036;2023-12-14T04:12:16;101107.19;;;7.46;100.00
49827;BME280;35715;51.570;6.036;2023-12-14T04:14:42;101115.94;;;7.48;100.00
49827;BME280;35715;51.570;6.036;2023-12-14T04:17:08;101112.84;;;7.52;100.00
49827;BME280;35715;51.570;6.036;2023-12-14T04:19:33;101104.25;;;7.52;100.00
49827;BME280;35715;51.570;6.036;2023-12-14T04:21:59;101105.13;;;7.52;100.00
49827;BME280;35715;51.570;6.036;2023-12-14T04:24:24;101115.03;;;7.47;100.00
49827;BME280;35715;51.570;6.036;2023-12-14T04:26:49;101107.19;;;7.46;100.00
49827;BME280;35715;51.570;6.036;2023-12-14T04:29:15;101114.13;;;7.47;100.00
49827;BME280;35715;51.570;6.036;2023-12-14T04:31:41;101113.50;;;7.50;100.00
49827;BME280;35715;51.570;6.036;2023-12-14T04:34:06;101119.41;;;7.49;100.00
49827;BME280;35715;51.570;6.036;2023-12-14T04:36:37;101127.34;;;7.52;100.00
49827;BME280;35715;51.570;6.036;2023-12-14T04:39:02;101125.03;;;7.55;100.00
49827;BME280;35715;51.570;6.036;2023-12-14T04:41:28;101133.38;;;7.52;100.00
49827;BME280;35715;51.570;6.036;2023-12-14T04:43:53;101137.75;;;7.53;100.00
49827;BME280;35715;51.570;6.036;2023-12-14T04:46:19;101146.59;;;7.57;100.00
49827;BME280;35715;51.570;6.036;2023-12-14T04:48:45;101138.78;;;7.55;100.00
49827;BME280;35715;51.570;6.036;2023-12-14T04:51:13;101148.16;;;7.55;100.00
49827;BME280;35715;51.570;6.036;2023-12-14T04:53:39;101151.34;;;7.52;100.00
49827;BME280;35715;51.570;6.036;2023-12-14T04:56:05;101150.34;;;7.50;100.00
49827;BME280;35715;51.570;6.036;2023-12-14T04:58:32;101157.53;;;7.54;100.00
49827;BME280;35715;51.570;6.036;2023-12-14T05:00:57;101155.72;;;7.53;100.00
49827;BME280;35715;51.570;6.036;2023-12-14T05:03:22;101156.75;;;7.55;100.00
49827;BME280;35715;51.570;6.036;2023-12-14T05:05:50;101158.81;;;7.59;100.00
49827;BME280;35715;51.570;6.036;2023-12-14T05:08:17;101166.78;;;7.62;100.00
49827;BME280;35715;51.570;6.036;2023-12-14T05:10:42;101174.47;;;7.62;100.00
49827;BME280;35715;51.570;6.036;2023-12-14T05:13:08;101186.56;;;7.63;100.00
49827;BME280;35715;51.570;6.036;2023-12-14T05:15:34;101196.69;;;7.62;100.00
49827;BME280;35715;51.570;6.036;2023-12-14T05:17:59;101201.84;;;7.62;100.00
49827;BME280;35715;51.570;6.036;2023-12-14T05:20:26;101216.31;;;7.61;100.00
49827;BME280;35715;51.570;6.036;2023-12-14T05:22:52;101222.63;;;7.65;100.00
49827;BME280;35715;51.570;6.036;2023-12-14T05:25:17;101224.31;;;7.64;100.00
49827;BME280;35715;51.570;6.036;2023-12-14T05:27:43;101222.63;;;7.65;100.00
49827;BME280;35715;51.570;6.036;2023-12-14T05:30:08;101225.47;;;7.68;100.00
49827;BME280;35715;51.570;6.036;2023-12-14T05:32:34;101224.31;;;7.64;100.00
49827;BME280;35715;51.570;6.036;2023-12-14T05:34:59;101230.09;;;7.62;100.00
49827;BME280;35715;51.570;6.036;2023-12-14T05:37:25;101228.78;;;7.57;100.00
49827;BME280;35715;51.570;6.036;2023-12-14T05:39:50;101230.44;;;7.56;100.00
49827;BME280;35715;51.570;6.036;2023-12-14T05:42:19;101228.91;;;7.58;100.00
49827;BME280;35715;51.570;6.036;2023-12-14T05:44:44;101243.78;;;7.52;100.00
49827;BME280;35715;51.570;6.036;2023-12-14T05:47:10;101258.44;;;7.53;100.00
49827;BME280;35715;51.570;6.036;2023-12-14T05:49:35;101265.38;;;7.54;100.00
49827;BME280;35715;51.570;6.036;2023-12-14T05:52:02;101274.84;;;7.55;100.00
49827;BME280;35715;51.570;6.036;2023-12-14T05:54:28;101275.66;;;7.54;100.00
49827;BME280;35715;51.570;6.036;2023-12-14T05:56:53;101276.13;;;7.50;100.00
49827;BME280;35715;51.570;6.036;2023-12-14T05:59:18;101286.53;;;7.52;100.00
49827;BME280;35715;51.570;6.036;2023-12-14T06:01:44;101285.91;;;7.54;100.00
49827;BME280;35715;51.570;6.036;2023-12-14T06:04:10;101296.06;;;7.53;100.00
49827;BME280;35715;51.570;6.036;2023-12-14T06:06:38;101309.66;;;7.52;100.00
49827;BME280;35715;51.570;6.036;2023-12-14T06:09:04;101307.56;;;7.47;100.00
49827;BME280;35715;51.570;6.036;2023-12-14T06:11:32;101318.09;;;7.40;100.00
49827;BME280;35715;51.570;6.036;2023-12-14T06:13:58;101321.41;;;7.39;100.00
49827;BME280;35715;51.570;6.036;2023-12-14T06:16:25;101326.41;;;7.38;100.00
49827;BME280;35715;51.570;6.036;2023-12-14T06:18:51;101336.56;;;7.36;100.00
49827;BME280;35715;51.570;6.036;2023-12-14T06:21:16;101332.19;;;7.35;100.00
49827;BME280;35715;51.570;6.036;2023-12-14T06:23:42;101346.97;;;7.38;100.00
49827;BME280;35715;51.570;6.036;2023-12-14T06:26:07;101358.13;;;7.38;100.00
49827;BME280;35715;51.570;6.036;2023-12-14T06:28:33;101368.38;;;7.38;100.00
49827;BME280;35715;51.570;6.036;2023-12-14T06:30:58;101371.28;;;7.33;100.00
49827;BME280;35715;51.570;6.036;2023-12-14T06:33:23;101377.75;;;7.38;100.00
49827;BME280;35715;51.570;6.036;2023-12-14T06:35:49;101376.22;;;7.40;100.00
49827;BME280;35715;51.570;6.036;2023-12-14T06:38:18;101376.09;;;7.38;100.00
49827;BME280;35715;51.570;6.036;2023-12-14T06:40:43;101379.97;;;7.43;100.00
49827;BME280;35715;51.570;6.036;2023-12-14T06:43:08;101379.06;;;7.43;100.00
49827;BME280;35715;51.570;6.036;2023-12-14T06:45:36;101384.47;;;7.46;100.00
49827;BME280;35715;51.570;6.036;2023-12-14T06:48:03;101393.72;;;7.44;100.00
49827;BME280;35715;51.570;6.036;2023-12-14T06:50:28;101392.44;;;7.49;100.00
49827;BME280;35715;51.570;6.036;2023-12-14T06:52:53;101394.59;;;7.44;100.00
49827;BME280;35715;51.570;6.036;2023-12-14T06:55:19;101398.72;;;7.42;100.00
49827;BME280;35715;51.570;6.036;2023-12-14T06:57:44;101396.91;;;7.41;100.00
49827;BME280;35715;51.570;6.036;2023-12-14T07:00:12;101395.53;;;7.45;100.00
49827;BME280;35715;51.570;6.036;2023-12-14T07:02:38;101389.97;;;7.40;100.00
49827;BME280;35715;51.570;6.036;2023-12-14T07:05:04;101393.91;;;7.37;100.00
49827;BME280;35715;51.570;6.036;2023-12-14T07:07:29;101393.03;;;7.36;100.00
49827;BME280;35715;51.570;6.036;2023-12-14T07:09:55;101396.63;;;7.38;100.00
49827;BME280;35715;51.570;6.036;2023-12-14T07:12:20;101401.00;;;7.39;100.00
49827;BME280;35715;51.570;6.036;2023-12-14T07:14:45;101407.03;;;7.40;100.00
49827;BME280;35715;51.570;6.036;2023-12-14T07:17:11;101416.69;;;7.42;100.00
49827;BME280;35715;51.570;6.036;2023-12-14T07:19:36;101415.66;;;7.40;100.00
49827;BME280;35715;51.570;6.036;2023-12-14T07:22:02;101420.47;;;7.37;100.00
49827;BME280;35715;51.570;6.036;2023-12-14T07:24:27;101427.56;;;7.40;100.00
49827;BME280;35715;51.570;6.036;2023-12-14T07:26:53;101428.84;;;7.35;100.00
49827;BME280;35715;51.570;6.036;2023-12-14T07:29:19;101434.09;;;7.36;100.00
49827;BME280;35715;51.570;6.036;2023-12-14T07:31:46;101445.25;;;7.37;100.00
49827;BME280;35715;51.570;6.036;2023-12-14T07:34:11;101445.41;;;7.38;100.00
49827;BME280;35715;51.570;6.036;2023-12-14T07:36:37;101451.28;;;7.37;100.00
49827;BME280;35715;51.570;6.036;2023-12-14T07:39:02;101457.06;;;7.35;100.00
49827;BME280;35715;51.570;6.036;2023-12-14T07:41:28;101463.97;;;7.36;100.00
49827;BME280;35715;51.570;6.036;2023-12-14T07:43:55;101473.78;;;7.40;100.00
49827;BME280;35715;51.570;6.036;2023-12-14T07:46:21;101473.63;;;7.38;100.00
49827;BME280;35715;51.570;6.036;2023-12-14T07:48:46;101483.00;;;7.38;100.00
49827;BME280;35715;51.570;6.036;2023-12-14T07:51:11;101488.75;;;7.35;100.00
49827;BME280;35715;51.570;6.036;2023-12-14T07:53:37;101490.56;;;7.36;100.00
49827;BME280;35715;51.570;6.036;2023-12-14T07:56:03;101499.91;;;7.36;100.00
49827;BME280;35715;51.570;6.036;2023-12-14T07:58:29;101506.72;;;7.35;100.00
49827;BME280;35715;51.570;6.036;2023-12-14T08:00:54;101504.63;;;7.31;100.00
49827;BME280;35715;51.570;6.036;2023-12-14T08:03:19;101513.25;;;7.32;100.00
49827;BME280;35715;51.570;6.036;2023-12-14T08:05:45;101520.19;;;7.33;100.00
49827;BME280;35715;51.570;6.036;2023-12-14T08:08:10;101526.53;;;7.36;100.00
49827;BME280;35715;51.570;6.036;2023-12-14T08:10:35;101525.44;;;7.34;100.00
49827;BME280;35715;51.570;6.036;2023-12-14T08:13:04;101540.72;;;7.33;100.00
49827;BME280;35715;51.570;6.036;2023-12-14T08:15:36;101533.66;;;7.30;100.00
49827;BME280;35715;51.570;6.036;2023-12-14T08:18:01;101550.69;;;7.29;100.00
49827;BME280;35715;51.570;6.036;2023-12-14T08:20:27;101561.75;;;7.28;100.00
49827;BME280;35715;51.570;6.036;2023-12-14T08:22:55;101562.22;;;7.24;100.00
49827;BME280;35715;51.570;6.036;2023-12-14T08:25:20;101567.34;;;7.24;100.00
49827;BME280;35715;51.570;6.036;2023-12-14T08:27:46;101562.84;;;7.22;100.00
49827;BME280;35715;51.570;6.036;2023-12-14T08:30:12;101570.66;;;7.23;100.00
49827;BME280;35715;51.570;6.036;2023-12-14T08:32:38;101573.09;;;7.22;100.00
49827;BME280;35715;51.570;6.036;2023-12-14T08:35:04;101578.22;;;7.22;100.00
49827;BME280;35715;51.570;6.036;2023-12-14T08:37:35;101583.50;;;7.23;100.00
49827;BME280;35715;51.570;6.036;2023-12-14T08:40:01;101584.44;;;7.24;100.00
49827;BME280;35715;51.570;6.036;2023-12-14T08:42:27;101583.66;;;7.25;100.00
49827;BME280;35715;51.570;6.036;2023-12-14T08:44:52;101588.50;;;7.22;100.00
49827;BME280;35715;51.570;6.036;2023-12-14T08:47:17;101593.16;;;7.26;100.00
49827;BME280;35715;51.570;6.036;2023-12-14T08:49:43;101594.34;;;7.29;100.00
49827;BME280;35715;51.570;6.036;2023-12-14T08:52:08;101604.19;;;7.25;100.00
49827;BME280;35715;51.570;6.036;2023-12-14T08:54:36;101609.94;;;7.22;100.00
49827;BME280;35715;51.570;6.036;2023-12-14T08:57:01;101598.28;;;7.26;100.00
49827;BME280;35715;51.570;6.036;2023-12-14T08:59:27;101609.59;;;7.28;100.00
49827;BME280;35715;51.570;6.036;2023-12-14T09:01:52;101612.31;;;7.29;100.00
49827;BME280;35715;51.570;6.036;2023-12-14T09:04:18;101622.56;;;7.29;100.00
49827;BME280;35715;51.570;6.036;2023-12-14T09:06:43;101623.06;;;7.25;99.72
49827;BME280;35715;51.570;6.036;2023-12-14T09:09:10;101631.53;;;7.24;99.90
49827;BME280;35715;51.570;6.036;2023-12-14T09:11:35;101633.81;;;7.21;99.63
49827;BME280;35715;51.570;6.036;2023-12-14T09:14:02;101633.22;;;7.15;99.24
49827;BME280;35715;51.570;6.036;2023-12-14T09:16:30;101633.09;;;7.14;99.72
49827;BME280;35715;51.570;6.036;2023-12-14T09:18:56;101640.78;;;7.14;99.94
49827;BME280;35715;51.570;6.036;2023-12-14T09:21:21;101655.75;;;7.09;99.86
49827;BME280;35715;51.570;6.036;2023-12-14T09:23:46;101652.91;;;7.06;99.91
49827;BME280;35715;51.570;6.036;2023-12-14T09:26:12;101656.50;;;7.08;100.00
49827;BME280;35715;51.570;6.036;2023-12-14T09:28:37;101666.16;;;7.10;100.00
49827;BME280;35715;51.570;6.036;2023-12-14T09:31:03;101681.41;;;7.09;100.00
49827;BME280;35715;51.570;6.036;2023-12-14T09:33:28;101676.75;;;7.05;100.00
49827;BME280;35715;51.570;6.036;2023-12-14T09:35:54;101682.00;;;7.06;100.00
49827;BME280;35715;51.570;6.036;2023-12-14T09:38:19;101679.75;;;7.09;100.00
49827;BME280;35715;51.570;6.036;2023-12-14T09:40:47;101681.41;;;7.09;100.00
49827;BME280;35715;51.570;6.036;2023-12-14T09:43:12;101687.59;;;7.11;100.00
49827;BME280;35715;51.570;6.036;2023-12-14T09:45:40;101697.84;;;7.11;100.00
49827;BME280;35715;51.570;6.036;2023-12-14T09:48:09;101700.88;;;7.07;100.00
49827;BME280;35715;51.570;6.036;2023-12-14T09:50:35;101699.97;;;7.06;100.00
49827;BME280;35715;51.570;6.036;2023-12-14T09:53:05;101702.41;;;6.96;100.00
49827;BME280;35715;51.570;6.036;2023-12-14T09:55:32;101708.75;;;7.00;100.00
49827;BME280;35715;51.570;6.036;2023-12-14T09:57:57;101708.63;;;6.98;100.00
49827;BME280;35715;51.570;6.036;2023-12-14T10:00:36;101722.34;;;6.99;100.00
49827;BME280;35715;51.570;6.036;2023-12-14T10:03:23;101722.03;;;6.96;100.00
49827;BME280;35715;51.570;6.036;2023-12-14T10:05:51;101729.28;;;7.00;100.00
49827;BME280;35715;51.570;6.036;2023-12-14T10:08:17;101731.06;;;7.01;100.00
49827;BME280;35715;51.570;6.036;2023-12-14T10:10:44;101735.75;;;7.05;100.00
49827;BME280;35715;51.570;6.036;2023-12-14T10:13:09;101730.78;;;7.06;100.00
49827;BME280;35715;51.570;6.036;2023-12-14T10:18:07;101727.00;;;7.03;100.00
49827;BME280;35715;51.570;6.036;2023-12-14T10:20:33;101734.22;;;7.07;100.00
49827;BME280;35715;51.570;6.036;2023-12-14T10:22:58;101745.56;;;7.09;100.00
49827;BME280;35715;51.570;6.036;2023-12-14T10:25:23;101750.25;;;7.13;100.00
49827;BME280;35715;51.570;6.036;2023-12-14T10:27:52;101756.41;;;7.15;100.00
49827;BME280;35715;51.570;6.036;2023-12-14T10:30:20;101761.69;;;7.17;100.00
49827;BME280;35715;51.570;6.036;2023-12-14T10:32:48;101761.25;;;7.12;99.68
49827;BME280;35715;51.570;6.036;2023-12-14T10:35:14;101773.34;;;7.13;99.89
49827;BME280;35715;51.570;6.036;2023-12-14T10:37:41;101777.84;;;7.16;99.89
49827;BME280;35715;51.570;6.036;2023-12-14T10:40:16;101776.66;;;7.12;99.42
49827;BME280;35715;51.570;6.036;2023-12-14T10:42:43;101786.19;;;7.13;99.04
49827;BME280;35715;51.570;6.036;2023-12-14T10:45:13;101787.81;;;7.13;98.95
49827;BME280;35715;51.570;6.036;2023-12-14T10:47:47;101791.91;;;7.10;98.65
49827;BME280;35715;51.570;6.036;2023-12-14T10:50:13;101788.75;;;7.13;98.82
49827;BME280;35715;51.570;6.036;2023-12-14T10:52:39;101789.03;;;7.07;98.20
49827;BME280;35715;51.570;6.036;2023-12-14T10:55:33;101793.59;;;7.01;97.88
49827;BME280;35715;51.570;6.036;2023-12-14T10:58:03;101788.59;;;7.03;98.58
49827;BME280;35715;51.570;6.036;2023-12-14T11:00:28;101788.59;;;7.03;98.66
49827;BME280;35715;51.570;6.036;2023-12-14T11:02:54;101795.38;;;7.02;98.21
49827;BME280;35715;51.570;6.036;2023-12-14T11:05:22;101793.88;;;7.04;97.86
49827;BME280;35715;51.570;6.036;2023-12-14T11:08:01;101794.16;;;7.07;97.74
49827;BME280;35715;51.570;6.036;2023-12-14T11:10:39;101794.78;;;7.05;97.08
49827;BME280;35715;51.570;6.036;2023-12-14T11:13:10;101800.19;;;7.08;97.45
49827;BME280;35715;51.570;6.036;2023-12-14T11:15:38;101795.97;;;7.08;97.54
49827;BME280;35715;51.570;6.036;2023-12-14T11:21:01;101790.53;;;7.14;97.17
49827;BME280;35715;51.570;6.036;2023-12-14T11:23:29;101787.06;;;7.22;97.35
49827;BME280;35715;51.570;6.036;2023-12-14T11:26:01;101793.69;;;7.20;96.55
49827;BME280;35715;51.570;6.036;2023-12-14T11:28:29;101799.09;;;7.23;96.22
49827;BME280;35715;51.570;6.036;2023-12-14T11:30:55;101804.09;;;7.22;95.73
49827;BME280;35715;51.570;6.036;2023-12-14T11:33:21;101816.03;;;7.21;95.37
49827;BME280;35715;51.570;6.036;2023-12-14T11:35:46;101810.00;;;7.21;94.93
49827;BME280;35715;51.570;6.036;2023-12-14T11:38:12;101816.19;;;7.23;94.72
49827;BME280;35715;51.570;6.036;2023-12-14T11:40:39;101830.69;;;7.22;94.51
49827;BME280;35715;51.570;6.036;2023-12-14T11:43:05;101823.72;;;7.21;93.62
49827;BME280;35715;51.570;6.036;2023-12-14T11:45:38;101827.19;;;7.22;93.62
49827;BME280;35715;51.570;6.036;2023-12-14T11:48:08;101840.81;;;7.21;93.66
49827;BME280;35715;51.570;6.036;2023-12-14T11:50:36;101841.84;;;7.23;94.07
49827;BME280;35715;51.570;6.036;2023-12-14T11:53:01;101846.38;;;7.25;93.89
49827;BME280;35715;51.570;6.036;2023-12-14T11:55:31;101841.41;;;7.27;93.43
49827;BME280;35715;51.570;6.036;2023-12-14T11:57:57;101834.00;;;7.30;93.51
49827;BME280;35715;51.570;6.036;2023-12-14T12:00:27;101838.50;;;7.33;93.24
49827;BME280;35715;51.570;6.036;2023-12-14T12:03:16;101841.22;;;7.34;93.23
49827;BME280;35715;51.570;6.036;2023-12-14T12:05:49;101837.59;;;7.32;92.65
49827;BME280;35715;51.570;6.036;2023-12-14T12:08:17;101839.41;;;7.33;92.95
49827;BME280;35715;51.570;6.036;2023-12-14T12:10:44;101832.31;;;7.31;92.66
49827;BME280;35715;51.570;6.036;2023-12-14T12:13:16;101838.19;;;7.29;92.79
49827;BME280;35715;51.570;6.036;2023-12-14T12:15:41;101846.06;;;7.31;93.02
49827;BME280;35715;51.570;6.036;2023-12-14T12:18:09;101848.75;;;7.33;93.03
49827;BME280;35715;51.570;6.036;2023-12-14T12:20:34;101852.41;;;7.35;92.97
49827;BME280;35715;51.570;6.036;2023-12-14T12:23:00;101852.41;;;7.35;92.42
49827;BME280;35715;51.570;6.036;2023-12-14T12:25:25;101856.00;;;7.37;92.60
49827;BME280;35715;51.570;6.036;2023-12-14T12:27:54;101859.47;;;7.37;92.46
49827;BME280;35715;51.570;6.036;2023-12-14T12:30:20;101858.28;;;7.34;92.69
49827;BME280;35715;51.570;6.036;2023-12-14T12:32:45;101861.75;;;7.34;92.92
49827;BME280;35715;51.570;6.036;2023-12-14T12:35:11;101856.47;;;7.33;92.67
49827;BME280;35715;51.570;6.036;2023-12-14T12:37:36;101847.88;;;7.32;92.61
49827;BME280;35715;51.570;6.036;2023-12-14T12:40:02;101846.50;;;7.36;92.96
49827;BME280;35715;51.570;6.036;2023-12-14T12:42:27;101853.75;;;7.40;92.82
49827;BME280;35715;51.570;6.036;2023-12-14T12:44:54;101860.41;;;7.46;93.20
49827;BME280;35715;51.570;6.036;2023-12-14T12:47:20;101864.00;;;7.49;92.77
49827;BME280;35715;51.570;6.036;2023-12-14T12:49:45;101859.47;;;7.46;92.37
49827;BME280;35715;51.570;6.036;2023-12-14T12:52:10;101862.19;;;7.47;92.07
49827;BME280;35715;51.570;6.036;2023-12-14T12:54:36;101866.44;;;7.47;91.83
49827;BME280;35715;51.570;6.036;2023-12-14T12:57:01;101869.28;;;7.50;92.18
49827;BME280;35715;51.570;6.036;2023-12-14T12:59:26;101877.28;;;7.53;92.21